Latest Coastal Weather Observations for Cape Flattery

IDQ60701

Issued at 4:21 am EST Thursday 8 December 2016 (issued every 10 minutes, with the page automatically refreshed every 10 minutes)

About coastal observations | Map of coastal stations | Coastal observations for QLD | Marine services | Other Formats
Station Details ID: 031213 Name: CAPE FLATTERY Lat: -14.97 Lon: 145.31 Height: 18.5 m
Data from the previous 72 hours. | See also: Recent months at Cape Flattery
Date/Time
EST
Temp
°C
Wind Pressure Rain since
9am
mm
Weather Cloud Vis
km
Sea
Height
m
Swell
Dir  Spd
kts
Gust
kts
hPa Trend Height
m
Period
s
Dir
08/04:00am 25.9 ESE 10 14 1008.9 - 5.2 - - - - - - -
08/03:30am 25.8 ESE 9 12 1008.8 - 5.2 - - - - - - -
08/03:00am 25.9 ESE 9 13 1009.0 - 5.2 - - - - - - -
08/02:30am 25.8 ESE 9 13 1009.1 - 5.2 - - - - - - -
08/02:00am 25.8 ESE 9 12 1009.2 - 5.2 - - - - - - -
08/01:30am 25.6 ESE 9 12 1009.6 - 5.0 - - - - - - -
08/01:00am 25.6 ESE 8 11 1009.8 - 5.0 - - - - - - -
08/12:30am 25.5 ESE 10 15 1010.1 - 5.0 - - - - - - -
08/12:00am 23.9 E 5 6 1010.5 - 5.0 Recent precip. - - - - - -
 
Date/Time
EST
Temp
°C
Wind Pressure Rain since
9am
mm
Weather Cloud Vis
km
Sea
Height
m
Swell
Dir  Spd
kts
Gust
kts
hPa Trend Height
m
Period
s
Dir
07/11:30pm 24.6 SE 11 19 1011.0 - 4.4 - - - - - - -
07/11:00pm 25.6 SE 7 10 1011.2 - 2.2 - - - - - - -
07/10:30pm 25.8 SE 10 14 1011.2 - 2.0 - - - - - - -
07/10:00pm 25.9 SE 11 15 1011.1 - 0.6 - - - - - - -
07/09:30pm 25.6 SE 8 12 1011.1 - 0.6 - - - - - - -
07/09:00pm 26.5 SSE 12 16 1010.9 - 0.0 - - - - - - -
07/08:30pm 26.1 SE 13 16 1010.7 - 0.0 - - - - - - -
07/08:00pm 26.5 SSE 15 19 1010.7 - 0.0 - - - - - - -
07/07:30pm 26.7 SSE 15 19 1010.5 - 0.0 - - - - - - -
07/07:00pm 26.7 SSE 16 21 1010.2 - 0.0 - - - - - - -
07/06:30pm 26.8 SE 13 17 1010.1 - 0.0 - - - - - - -
07/06:00pm 27.4 SSE 15 19 1010.1 - 0.0 - - - - - - -
07/05:30pm 28.2 SSE 15 19 1010.0 - 0.0 - - - - - - -
07/05:00pm 28.6 SSE 16 20 1009.6 - 0.0 - - - - - - -
07/04:30pm 29.0 SSE 18 23 1009.3 - 0.0 - - - - - - -
07/04:00pm 29.7 SSE 18 22 1009.3 - 0.0 - - - - - - -
07/03:30pm 29.4 SE 16 20 1009.3 - 0.0 - - - - - - -
07/03:00pm 28.6 SSE 15 19 1009.6 - 0.0 - - - - - - -
07/02:30pm 30.0 SE 15 20 1009.9 - 0.0 - - - - - - -
07/02:00pm 30.4 SE 18 24 1010.2 - 0.0 - - - - - - -
07/01:30pm 31.4 SE 16 22 1010.4 - 0.0 - - - - - - -
07/01:00pm 32.0 SE 15 21 1010.6 - 0.0 - - - - - - -
07/12:30pm 31.2 SSE 15 22 1010.8 - 0.0 - - - - - - -
07/12:00pm 32.2 SSE 15 20 1011.0 - 0.0 - - - - - - -
07/11:30am 31.5 SSE 16 21 1011.2 - 0.0 - - - - - - -
07/11:00am 31.0 SSE 14 19 1011.3 - 0.0 - - - - - - -
07/10:30am 30.8 SE 15 20 1011.4 - 0.0 - - - - - - -
07/10:00am 31.9 SE 13 19 1011.6 - 0.0 - - - - - - -
07/09:30am 30.1 SE 13 18 1011.7 - 0.0 - - - - - - -
07/09:00am 30.0 SE 13 18 1011.8 - 0.0 - - - - - - -
07/08:30am 29.3 SE 12 15 1011.9 - 0.0 - - - - - - -
07/08:00am 28.9 SE 11 16 1011.6 - 0.0 - - - - - - -
07/07:30am 27.8 SE 12 16 1011.3 - 0.0 - - - - - - -
07/07:00am 27.8 SE 11 16 1010.9 - 0.0 - - - - - - -
07/06:30am 26.8 SE 11 16 1010.5 - 0.0 - - - - - - -
07/06:00am 25.8 SE 9 13 1010.1 - 0.0 - - - - - - -
07/05:30am 25.4 SE 9 13 1009.7 - 0.0 - - - - - - -
07/05:00am 25.7 ESE 9 13 1009.6 - 0.0 - - - - - - -
07/04:30am 25.4 ESE 9 13 1009.2 - 0.0 - - - - - - -
07/04:00am 25.8 ESE 10 14 1009.1 - 0.0 - - - - - - -
07/03:30am 26.1 ESE 11 15 1009.0 - 0.0 - - - - - - -
07/03:00am 26.2 ESE 13 19 1008.9 - 0.0 - - - - - - -
07/02:30am 26.3 ESE 12 19 1009.0 - 0.0 - - - - - - -
07/02:00am 26.3 ESE 15 20 1009.3 - 0.0 - - - - - - -
07/01:30am 26.3 ESE 14 19 1009.4 - 0.0 - - - - - - -
07/01:00am 26.5 ESE 14 19 1009.7 - 0.0 - - - - - - -
07/12:30am 26.4 ESE 12 20 1010.1 - 0.0 - - - - - - -
07/12:00am 26.7 ESE 14 21 1010.6 - 0.0 - - - - - - -
 
Date/Time
EST
Temp
°C
Wind Pressure Rain since
9am
mm
Weather Cloud Vis
km
Sea
Height
m
Swell
Dir  Spd
kts
Gust
kts
hPa Trend Height
m
Period
s
Dir
06/11:30pm 27.0 SE 15 20 1010.7 - 0.0 - - - - - - -
06/11:00pm 26.9 SE 13 20 1011.0 - 0.0 - - - - - - -
06/10:30pm 26.9 SE 14 19 1011.3 - 0.0 - - - - - - -
06/10:00pm 26.9 SE 15 22 1011.3 - 0.0 - - - - - - -
06/09:30pm 26.8 SE 13 19 1011.2 - 0.0 - - - - - - -
06/09:00pm 26.9 SE 13 19 1010.9 - 0.0 - - - - - - -
06/08:30pm 27.0 SE 14 20 1010.8 - 0.0 - - - - - - -
06/08:00pm 26.9 SE 13 20 1010.6 - 0.0 - - - - - - -
06/07:30pm 27.1 SE 14 19 1010.6 - 0.0 - - - - - - -
06/07:00pm 27.1 SE 13 17 1010.4 - 0.0 - - - - - - -
06/06:30pm 27.2 SE 14 21 1010.2 - 0.0 - - - - - - -
06/06:00pm 27.7 SE 16 21 1010.0 - 0.0 - - - - - - -
06/05:30pm 28.2 SE 16 21 1009.7 - 0.0 - - - - - - -
06/05:00pm 29.2 SE 16 22 1009.5 - 0.0 - - - - - - -
06/04:30pm 30.1 SE 17 23 1009.4 - 0.0 - - - - - - -
06/04:00pm 30.4 SE 18 23 1009.4 - 0.0 - - - - - - -
06/03:30pm 30.8 SE 17 25 1009.5 - 0.0 - - - - - - -
06/03:00pm 30.6 SE 17 24 1009.9 - 0.0 - - - - - - -
06/02:30pm 30.7 SE 19 24 1010.4 - 0.0 - - - - - - -
06/02:00pm 31.9 SE 20 25 1010.9 - 0.0 - - - - - - -
06/01:30pm 31.2 SSE 21 27 1011.1 - 0.0 - - - - - - -
06/01:00pm 31.7 SE 21 26 1011.4 - 0.0 - - - - - - -
06/12:30pm 32.5 SE 20 27 1011.9 - 0.0 - - - - - - -
06/12:00pm 31.7 SSE 20 25 1012.3 - 0.0 - - - - - - -
06/11:30am 31.2 SE 18 25 1012.5 - 0.0 - - - - - - -
06/11:00am 31.1 SE 18 23 1013.0 - 0.0 - - - - - - -
06/10:30am 31.6 SE 17 22 1013.1 - 0.0 - - - - - - -
06/10:00am 30.5 SE 17 22 1013.4 - 0.0 - - - - - - -
06/09:30am 30.3 SE 17 23 1013.6 - 0.0 - - - - - - -
06/09:00am 30.2 SE 17 21 1013.6 - 0.0 - - - - - - -
06/08:30am 29.1 SE 17 21 1013.4 - 0.0 - - - - - - -
06/08:00am 29.8 SE 14 21 1013.2 - 0.0 - - - - - - -
06/07:30am 28.8 ESE 16 21 1013.0 - 0.0 - - - - - - -
06/07:00am 28.1 SE 14 17 1012.8 - 0.0 - - - - - - -
06/06:30am 27.4 SE 15 19 1012.3 - 0.0 - - - - - - -
06/06:00am 26.7 SE 14 19 1011.9 - 0.0 - - - - - - -
06/05:30am 26.5 SE 13 18 1011.4 - 0.0 - - - - - - -
06/05:00am 26.6 SE 15 21 1011.1 - 0.0 - - - - - - -
06/04:30am 26.3 ESE 11 17 1010.8 - 0.0 - - - - - - -
06/04:00am 26.4 SE 13 18 1010.3 - 0.0 - - - - - - -
06/03:30am 26.4 SE 12 16 1010.2 - 0.0 - - - - - - -
06/03:00am 26.3 SE 12 19 1010.2 - 0.0 - - - - - - -
06/02:30am 26.6 SE 13 17 1010.2 - 0.0 - - - - - - -
06/02:00am 26.5 SE 15 20 1010.3 - 0.0 - - - - - - -
06/01:30am 26.6 SE 15 21 1010.6 - 0.0 - - - - - - -
06/01:00am 26.8 SE 14 20 1010.9 - 0.0 - - - - - - -
06/12:30am 26.7 SE 13 19 1011.3 - 0.0 - - - - - - -
06/12:00am 26.7 ESE 13 18 1011.7 - 0.0 - - - - - - -
 
Date/Time
EST
Temp
°C
Wind Pressure Rain since
9am
mm
Weather Cloud Vis
km
Sea
Height
m
Swell
Dir  Spd
kts
Gust
kts
hPa Trend Height
m
Period
s
Dir
05/11:30pm 26.8 SE 15 21 1011.7 - 0.0 - - - - - - -
05/11:00pm 26.9 SE 16 22 1011.7 - 0.0 - - - - - - -
05/10:30pm 27.0 SE 15 23 1011.7 - 0.0 - - - - - - -
05/10:00pm 26.7 SE 14 20 1011.9 - 0.0 - - - - - - -
05/09:30pm 26.9 ESE 15 21 1011.8 - 0.0 - - - - - - -
05/09:00pm 27.1 SE 15 22 1011.7 - 0.0 - - - - - - -
05/08:30pm 27.0 SE 15 20 1011.6 - 0.0 - - - - - - -
05/08:00pm 27.2 SE 15 21 1011.5 - 0.0 - - - - - - -
05/07:30pm 27.0 SE 16 22 1011.3 - 0.0 - - - - - - -
05/07:00pm 27.1 SE 15 22 1011.0 - 0.0 - - - - - - -
05/06:30pm 27.3 SE 17 21 1011.0 - 0.0 - - - - - - -
05/06:00pm 28.1 SE 17 23 1011.0 - 0.0 - - - - - - -
05/05:30pm 28.5 SE 18 23 1010.9 - 0.0 - - - - - - -
05/05:00pm 28.9 SE 16 21 1010.7 - 0.0 - - - - - - -
05/04:30pm 29.1 SE 18 24 1010.6 - 0.0 - - - - - - -
05/04:00pm 30.3 SE 18 23 1010.5 - 0.0 - - - - - - -
05/03:30pm 31.1 SE 19 24 1010.6 - 0.0 - - - - - - -
05/03:00pm 31.1 SE 17 23 1010.8 - 0.0 - - - - - - -
05/02:30pm 31.0 SE 18 24 1010.9 - 0.0 - - - - - - -
05/02:00pm 31.6 SE 19 24 1011.2 - 0.0 - - - - - - -
05/01:30pm 31.6 SE 19 24 1011.4 - 0.0 - - - - - - -
05/01:00pm 31.4 SSE 19 23 1011.7 - 0.0 - - - - - - -
05/12:30pm 31.3 SE 20 25 1012.1 - 0.0 - - - - - - -
05/12:00pm 31.3 SE 18 24 1012.4 - 0.0 - - - - - - -
05/11:30am 30.6 SE 19 23 1012.7 - 0.0 - - - - - - -
05/11:00am 31.6 SE 17 23 1013.1 - 0.0 - - - - - - -
05/10:30am 30.8 SE 17 23 1013.3 - 0.0 - - - - - - -
05/10:00am 31.0 SE 18 25 1013.5 - 0.0 - - - - - - -
05/09:30am 30.7 SE 17 24 1013.5 - 0.0 - - - - - - -
05/09:00am 29.1 SE 17 23 1013.6 - 0.0 - - - - - - -
05/08:30am 29.4 SE 17 23 1013.3 - 0.0 - - - - - - -
05/08:00am 28.3 SE 16 21 1013.1 - 0.0 - - - - - - -
05/07:30am 28.5 SE 15 22 1012.9 - 0.0 - - - - - - -
05/07:00am 27.6 SE 15 20 1012.8 - 0.0 - - - - - - -
05/06:30am 26.8 SE 15 19 1012.6 - 0.0 - - - - - - -
05/06:00am 26.5 SE 13 20 1012.0 - 0.0 - - - - - - -
05/05:30am 26.4 SE 14 19 1011.6 - 0.0 - - - - - - -
05/05:00am 26.3 SE 12 18 1011.3 - 0.0 - - - - - - -
05/04:30am 26.3 ESE 11 17 1010.9 - 0.0 - - - - - - -

Other Formats:

Comma delimited format used in spreadsheet applications
http://www.bom.gov.au/fwo/IDQ60701/IDQ60701.94188.axf

JavaScript Object Notation format (JSON) in row-major order
http://www.bom.gov.au/fwo/IDQ60701/IDQ60701.94188.json